Overview Statistics Trail Chart Weather Telemetry Raw packets
 

This is the latest recevied weather packets stored in our database for station/object YO8PIC-13. If no packets are shown the sender has not sent any weather packets the latest 10 day(s).

<< 24 25 26 27 28 29 30 >>
Time Temp. Humidity Pressure Rain* Wind** Luminosity Snow
1788189739 40.56° C 12% 1016.9 hPa - - - -
1788189139 39.44° C 13% 1016.9 hPa - - - -
1788188540 40.56° C 11% 1016.8 hPa - - - -
1788187939 41.67° C 11% 1016.8 hPa - - - -
1788187339 41.11° C 12% 1016.9 hPa - - - -
1788186739 43.33° C 10% 1017 hPa - - - -
1788186139 42.22° C 10% 1017.1 hPa - - - -
1788185539 45.56° C 8% 1017.1 hPa - - - -
1788184939 44.44° C 10% 1017.1 hPa - - - -
1788184339 43.33° C 9% 1017.1 hPa - - - -
1788183739 45° C 8% 1017.2 hPa - - - -
1788183139 41.11° C 11% 1017.3 hPa - - - -
1788182539 46.11° C 8% 1017.3 hPa - - - -
1788181939 47.22° C 8% 1017.4 hPa - - - -
1788181339 44.44° C 9% 1017.4 hPa - - - -
1788180739 47.22° C 8% 1017.5 hPa - - - -
1788180145 46.67° C 8% 1017.5 hPa - - - -
1788179539 44.44° C 9% 1017.6 hPa - - - -
1788178938 46.11° C 8% 1017.7 hPa - - - -
1788178339 48.33° C 8% 1017.8 hPa - - - -
1788177739 47.78° C 8% 1017.9 hPa - - - -
1788177139 45.56° C 9% 1018 hPa - - - -
1788176539 40.56° C 13% 1018 hPa - - - -
1788175939 41.11° C 12% 1018.1 hPa - - - -
1788175339 46.67° C 9% 1018.2 hPa - - - -

* Rain since midnight (hover to see other rain measurements)
** Current wind speed in m/s (hover to see current wind gust speed)